Royal, Tennessee
Current Conditions -  °F | °C
As of 11:15 AM on Thursday 23 Oct 2014 (Local Time) from KSYI Reporting Station
Clear Clear  
Wind Chill: 59°   Ceiling: Unl
Heat Index: 59°   Visibility: 10mi
Dew Point: 45°   Wind: 0mph
Humidity: 59%   Direction: NA
Pressure: 30.2"   Gusts: NA
Location:  35.4645°N, 86.4889°W
Report Text: KSYI 231615Z AUTO 00000KT 10SM CLR 15/07 A3020 RMK
Loading
Personal Weather Stations






























Interactive Weather Map
Tropical Storm Tracking
New forecast layout! Learn more

10-Day Weather Forecast

Advertisements
Track Severe Weather on mobile